Briefing drone pour Chambery (LFLB)

Rechercher une autre localisation

Conditions de vol :


Nous sommes le : Mercredi 07 décembre 2022
Il est 21:17 UTC (22:17 LT)

Lever de soleil : 06:36 UTC (07:36 LT)
Coucher de soleil : 16:18 UTC (17:18 LT)

Météo

L'essentiel des conditions de vol

VIGILANCE MÉTÉO FRANCE - Savoie (73)
Vigilance Jaune : Avalanches
METAR de LFLB
LFLB 072100Z AUTO 19006KT 9999 OVC031 03/01 Q1014

Date d'émission: 07/12/2022
Heure d'émission: 21:00 UTC
Vent: 190° pour 6 KT (11 km/h)
Visibilité horizontale: > 10 km
Plafond :
- Couvert à 3100ft (945m)
Température: 3 °C
Point de rosée: 1 °C
Humidité: 87%
Pression (QNH): 1014 hPa
TAF de LFLB
LFLB 072011Z 0720/0815 CNL= LFLS 072011Z 0720/0815 CNL

Conditions prévues :

Heure d'émission : Bulletin éffectué le 07 à 20:00 UTC
Prévision : Valide du 07 a 20:00 UTC au 08 a 15:00 UTC
Nuages : à 0ft (0 m)
à 0ft (0 m)
à 0ft (0 m)
à 0ft (0 m)
WEBCAM POUR CHAMBERY

Réglementation

Voler en sécurité

CARTES AERONAUTIQUE 1/500.000
CARTE AZBA (Reseau basse altitude)
CARTES VAC (LFLB)
SUP AIP




Chargement des AIP...
NOTAM (CHAMBERY + Terrain à proximité / FIR )




Chargement des NOTAMS...
CONTACT PREFECTURE 73


Avertissement : Les données mises à disposition sont indicatives. Oxygène Drone ne pourra être tenu responsable de dégâts causés aux biens et aux personnes.